Hundvaag 1 weather for Dec 2005
Month no. 222
Obs.
Da.
Temp. Dew Point Precip. Wind
Speed
Wind gusts Cloud cover Press. Humidity Wind dir. Sunny OPT
01.12.2005 6,2   6,6 3,9   0 1000,0 89,0 157,5   52,5 %
02.12.2005 6,0   1,0 5,8   9 1001,5 62,0 157,5 1 80,0 %
03.12.2005 6,7   0,2 8,4   2 999,5 58,0 135,0   60,0 %
04.12.2005 6,1   0,3 7,9   4 998,0 54,0     65,0 %
05.12.2005 6,8   0,3 3,5   1 1002,5 59,0 67,5   62,5 %
06.12.2005 5,8   1,1 1,4   1 1009,0 68,0 67,5   62,5 %
07.12.2005 5,8   1,9 1,2   0 1014,0 75,0     60,0 %
08.12.2005 5,1   0,5 0,9   1 1025,0 62,0     62,5 %
09.12.2005 1,4   0,1 2,6   10 1036,5 78,0   1 80,0 %
10.12.2005 8,4   2,0 4,8   0 1031,0 92,0 157,5   60,0 %
11.12.2005 10,8   12,1 4,4   0 1025,5 93,0 225,0   52,5 %
12.12.2005 6,2   1,4 6,2   9 1030,5 78,0 202,5 1 80,0 %
13.12.2005 7,2   2,9 7,4   0 1025,5 86,0 270,0   55,0 %
14.12.2005 6,9   45,2 6,0   4 1013,5 87,0 337,5 1 42,5 %
15.12.2005 7,4   18,0 10,3   0 998,5 79,0 315,0   40,0 %
16.12.2005 2,4   3,5 7,6   0 995,0 82,0 22,5   47,5 %
17.12.2005 2,1   3,5 5,3   9 1005,5 68,0 0,0   72,5 %
18.12.2005 3,9   0,2 1,9   10 1009,5 83,0   1 82,5 %
19.12.2005 4,4   6,9 3,4   4 1008,5 85,0 180,0   62,5 %
20.12.2005 2,7   8,9 1,9   4 1019,0 88,0 0,0   62,5 %
21.12.2005 7,1   0,1 7,5   4 1018,5 83,0 180,0 1 65,0 %
22.12.2005 5,4   9,0 5,8   4 1017,5 69,0 315,0   60,0 %
23.12.2005 7,6   0,2 5,3   4 1012,0 89,0 180,0 1 70,0 %
24.12.2005 5,1   6,7 6,7   4 1014,5 68,0 337,5   62,5 %
25.12.2005 3,8   0,3 6,2   4 1023,0 64,0 0,0 1 65,0 %
26.12.2005 0,4   0,0 2,7   4 1025,0 68,0 0,0 1 65,0 %
27.12.2005 -3,9   0,0 2,4   4 1029,5 66,0   1 60,0 %
28.12.2005 -3,5   0,0 2,2   4 1027,0 63,0 45,0 1 60,0 %
29.12.2005 -2,5   0,0 2,2   4 1016,0 57,0 45,0 1 62,5 %
30.12.2005 -1,1   0,3 5,8   4 1003,5 74,0 90,0 1 60,0 %
31.12.2005 1,9   0,4 8,2   4 996,0 54,0 157,5 1 60,0 %
Avrg/Sum 4,3   133,6 4,8   3,6 1013,9 73,6 145,8 14 62,3 %